sensor_id;sensor_type;location;lat;lon;timestamp;pressure;altitude;pressure_sealevel;temperature;humidity
16255;BME280;8235;52.198;9.904;2024-02-14T00:02:02;100917.66;;;6.73;80.68
16255;BME280;8235;52.198;9.904;2024-02-14T00:04:31;100921.25;;;6.72;81.09
16255;BME280;8235;52.198;9.904;2024-02-14T00:06:58;100910.53;;;6.75;80.99
16255;BME280;8235;52.198;9.904;2024-02-14T00:09:24;100914.97;;;6.75;81.64
16255;BME280;8235;52.198;9.904;2024-02-14T00:11:51;100917.72;;;6.72;81.61
16255;BME280;8235;52.198;9.904;2024-02-14T00:14:18;100920.44;;;6.70;82.01
16255;BME280;8235;52.198;9.904;2024-02-14T00:16:45;100916.94;;;6.70;82.35
16255;BME280;8235;52.198;9.904;2024-02-14T00:19:12;100918.66;;;6.71;82.29
16255;BME280;8235;52.198;9.904;2024-02-14T00:21:40;100911.78;;;6.67;82.60
16255;BME280;8235;52.198;9.904;2024-02-14T00:24:07;100907.41;;;6.66;82.63
16255;BME280;8235;52.198;9.904;2024-02-14T00:26:33;100909.25;;;6.63;82.42
16255;BME280;8235;52.198;9.904;2024-02-14T00:29:00;100907.56;;;6.63;83.01
16255;BME280;8235;52.198;9.904;2024-02-14T00:31:27;100904.13;;;6.60;82.34
16255;BME280;8235;52.198;9.904;2024-02-14T00:33:55;100902.38;;;6.59;82.88
16255;BME280;8235;52.198;9.904;2024-02-14T00:36:21;100899.69;;;6.61;81.99
16255;BME280;8235;52.198;9.904;2024-02-14T00:38:49;100903.19;;;6.61;82.78
16255;BME280;8235;52.198;9.904;2024-02-14T00:41:16;100898.47;;;6.68;81.76
16255;BME280;8235;52.198;9.904;2024-02-14T00:43:42;100897.59;;;6.68;81.78
16255;BME280;8235;52.198;9.904;2024-02-14T00:46:09;100894.78;;;6.72;81.82
16255;BME280;8235;52.198;9.904;2024-02-14T00:48:35;100880.81;;;6.69;81.35
16255;BME280;8235;52.198;9.904;2024-02-14T00:51:02;100889.72;;;6.66;81.60
16255;BME280;8235;52.198;9.904;2024-02-14T00:53:29;100882.59;;;6.68;81.57
16255;BME280;8235;52.198;9.904;2024-02-14T00:55:56;100885.91;;;6.73;81.54
16255;BME280;8235;52.198;9.904;2024-02-14T00:58:23;100883.06;;;6.78;79.78
16255;BME280;8235;52.198;9.904;2024-02-14T01:00:49;100873.41;;;6.77;80.10
16255;BME280;8235;52.198;9.904;2024-02-14T01:03:16;100869.91;;;6.76;80.03
16255;BME280;8235;52.198;9.904;2024-02-14T01:05:42;100862.88;;;6.75;79.98
16255;BME280;8235;52.198;9.904;2024-02-14T01:08:09;100859.44;;;6.73;79.66
16255;BME280;8235;52.198;9.904;2024-02-14T01:10:35;100852.63;;;6.68;80.22
16255;BME280;8235;52.198;9.904;2024-02-14T01:13:03;100858.72;;;6.70;80.90
16255;BME280;8235;52.198;9.904;2024-02-14T01:15:31;100850.75;;;6.70;80.65
16255;BME280;8235;52.198;9.904;2024-02-14T01:17:58;100858.72;;;6.70;80.74
16255;BME280;8235;52.198;9.904;2024-02-14T01:20:25;100845.53;;;6.68;80.65
16255;BME280;8235;52.198;9.904;2024-02-14T01:22:51;100843.81;;;6.67;80.51
16255;BME280;8235;52.198;9.904;2024-02-14T01:25:18;100840.38;;;6.65;80.52
16255;BME280;8235;52.198;9.904;2024-02-14T01:27:44;100838.53;;;6.67;81.07
16255;BME280;8235;52.198;9.904;2024-02-14T01:30:12;100849.25;;;6.64;81.21
16255;BME280;8235;52.198;9.904;2024-02-14T01:32:40;100828.88;;;6.66;81.04
16255;BME280;8235;52.198;9.904;2024-02-14T01:35:07;100835.09;;;6.65;80.94
16255;BME280;8235;52.198;9.904;2024-02-14T01:37:34;100830.59;;;6.67;81.00
16255;BME280;8235;52.198;9.904;2024-02-14T01:40:01;100822.66;;;6.67;81.36
16255;BME280;8235;52.198;9.904;2024-02-14T01:42:28;100834.81;;;6.71;80.58
16255;BME280;8235;52.198;9.904;2024-02-14T01:44:54;100823.44;;;6.69;80.63
16255;BME280;8235;52.198;9.904;2024-02-14T01:47:22;100826.09;;;6.69;81.48
16255;BME280;8235;52.198;9.904;2024-02-14T01:49:49;100821.66;;;6.70;81.41
16255;BME280;8235;52.198;9.904;2024-02-14T01:52:15;100819.06;;;6.68;81.26
16255;BME280;8235;52.198;9.904;2024-02-14T01:54:42;100814.63;;;6.69;81.45
16255;BME280;8235;52.198;9.904;2024-02-14T01:57:10;100815.63;;;6.66;82.24
16255;BME280;8235;52.198;9.904;2024-02-14T01:59:36;100813.91;;;6.65;82.14
16255;BME280;8235;52.198;9.904;2024-02-14T02:02:03;100814.63;;;6.69;82.01
16255;BME280;8235;52.198;9.904;2024-02-14T02:04:33;100797.78;;;6.71;81.94
16255;BME280;8235;52.198;9.904;2024-02-14T02:07:00;100795.06;;;6.73;82.02
16255;BME280;8235;52.198;9.904;2024-02-14T02:09:27;100797.63;;;6.74;81.74
16255;BME280;8235;52.198;9.904;2024-02-14T02:11:53;100785.19;;;6.76;81.96
16255;BME280;8235;52.198;9.904;2024-02-14T02:14:21;100792.22;;;6.77;81.48
16255;BME280;8235;52.198;9.904;2024-02-14T02:16:48;100786.84;;;6.79;82.09
16255;BME280;8235;52.198;9.904;2024-02-14T02:19:15;100786.78;;;6.80;81.76
16255;BME280;8235;52.198;9.904;2024-02-14T02:21:43;100789.31;;;6.82;81.82
16255;BME280;8235;52.198;9.904;2024-02-14T02:24:12;100783.91;;;6.85;82.32
16255;BME280;8235;52.198;9.904;2024-02-14T02:26:39;100771.44;;;6.87;81.32
16255;BME280;8235;52.198;9.904;2024-02-14T02:29:05;100784.69;;;6.87;81.47
16255;BME280;8235;52.198;9.904;2024-02-14T02:31:32;100773.03;;;6.91;81.80
16255;BME280;8235;52.198;9.904;2024-02-14T02:33:59;100773.91;;;6.91;81.04
16255;BME280;8235;52.198;9.904;2024-02-14T02:36:25;100772.91;;;6.94;81.71
16255;BME280;8235;52.198;9.904;2024-02-14T02:38:55;100774.25;;;7.03;82.03
16255;BME280;8235;52.198;9.904;2024-02-14T02:41:23;100759.22;;;7.03;82.05
16255;BME280;8235;52.198;9.904;2024-02-14T02:43:49;100750.34;;;7.04;81.72
16255;BME280;8235;52.198;9.904;2024-02-14T02:46:16;100747.50;;;7.09;81.35
16255;BME280;8235;52.198;9.904;2024-02-14T02:48:43;100744.75;;;7.10;81.90
16255;BME280;8235;52.198;9.904;2024-02-14T02:51:09;100746.56;;;7.10;81.80
16255;BME280;8235;52.198;9.904;2024-02-14T02:53:35;100739.25;;;7.15;82.30
16255;BME280;8235;52.198;9.904;2024-02-14T02:56:03;100734.81;;;7.15;81.97
16255;BME280;8235;52.198;9.904;2024-02-14T02:58:32;100738.16;;;7.19;82.86
16255;BME280;8235;52.198;9.904;2024-02-14T03:00:58;100725.69;;;7.21;83.42
16255;BME280;8235;52.198;9.904;2024-02-14T03:03:26;100721.19;;;7.23;83.78
16255;BME280;8235;52.198;9.904;2024-02-14T03:05:53;100735.38;;;7.22;83.66
16255;BME280;8235;52.198;9.904;2024-02-14T03:08:20;100735.50;;;7.19;84.86
16255;BME280;8235;52.198;9.904;2024-02-14T03:10:50;100730.22;;;7.19;84.61
16255;BME280;8235;52.198;9.904;2024-02-14T03:13:17;100717.91;;;7.18;85.87
16255;BME280;8235;52.198;9.904;2024-02-14T03:15:46;100717.91;;;7.18;86.01
16255;BME280;8235;52.198;9.904;2024-02-14T03:18:13;100718.75;;;7.18;87.58
16255;BME280;8235;52.198;9.904;2024-02-14T03:20:40;100721.66;;;7.14;87.52
16255;BME280;8235;52.198;9.904;2024-02-14T03:23:06;100718.06;;;7.15;88.32
16255;BME280;8235;52.198;9.904;2024-02-14T03:25:33;100721.72;;;7.12;88.23
16255;BME280;8235;52.198;9.904;2024-02-14T03:28:02;100710.34;;;7.10;88.52
16255;BME280;8235;52.198;9.904;2024-02-14T03:30:33;100711.97;;;7.13;88.61
16255;BME280;8235;52.198;9.904;2024-02-14T03:33:01;100704.91;;;7.13;88.42
16255;BME280;8235;52.198;9.904;2024-02-14T03:35:27;100714.63;;;7.13;88.68
16255;BME280;8235;52.198;9.904;2024-02-14T03:37:53;100711.19;;;7.11;88.77
16255;BME280;8235;52.198;9.904;2024-02-14T03:40:20;100710.34;;;7.10;88.04
16255;BME280;8235;52.198;9.904;2024-02-14T03:42:47;100702.59;;;7.06;89.13
16255;BME280;8235;52.198;9.904;2024-02-14T03:45:13;100702.81;;;7.01;88.76
16255;BME280;8235;52.198;9.904;2024-02-14T03:47:40;100697.31;;;7.06;89.55
16255;BME280;8235;52.198;9.904;2024-02-14T03:50:08;100689.22;;;7.09;89.51
16255;BME280;8235;52.198;9.904;2024-02-14T03:52:35;100685.50;;;7.13;89.95
16255;BME280;8235;52.198;9.904;2024-02-14T03:55:02;100680.22;;;7.13;89.85
16255;BME280;8235;52.198;9.904;2024-02-14T03:57:29;100675.69;;;7.15;90.23
16255;BME280;8235;52.198;9.904;2024-02-14T03:59:55;100691.50;;;7.16;90.30
16255;BME280;8235;52.198;9.904;2024-02-14T04:02:22;100671.94;;;7.19;91.17
16255;BME280;8235;52.198;9.904;2024-02-14T04:04:49;100669.94;;;7.24;91.04
16255;BME280;8235;52.198;9.904;2024-02-14T04:07:17;100669.16;;;7.22;91.40
16255;BME280;8235;52.198;9.904;2024-02-14T04:09:43;100673.66;;;7.20;91.98
16255;BME280;8235;52.198;9.904;2024-02-14T04:12:10;100675.69;;;7.15;92.56
16255;BME280;8235;52.198;9.904;2024-02-14T04:14:37;100685.34;;;7.16;92.64
16255;BME280;8235;52.198;9.904;2024-02-14T04:17:04;100672.25;;;7.13;93.22
16255;BME280;8235;52.198;9.904;2024-02-14T04:19:32;100681.06;;;7.13;93.24
16255;BME280;8235;52.198;9.904;2024-02-14T04:21:59;100670.31;;;7.16;93.52
16255;BME280;8235;52.198;9.904;2024-02-14T04:24:27;100668.59;;;7.15;93.63
16255;BME280;8235;52.198;9.904;2024-02-14T04:26:53;100673.72;;;7.18;94.30
16255;BME280;8235;52.198;9.904;2024-02-14T04:29:20;100657.84;;;7.18;94.62
16255;BME280;8235;52.198;9.904;2024-02-14T04:31:47;100669.06;;;7.23;94.96
16255;BME280;8235;52.198;9.904;2024-02-14T04:34:14;100661.84;;;7.27;95.07
16255;BME280;8235;52.198;9.904;2024-02-14T04:36:40;100665.28;;;7.29;96.20
16255;BME280;8235;52.198;9.904;2024-02-14T04:39:07;100651.09;;;7.30;95.62
16255;BME280;8235;52.198;9.904;2024-02-14T04:41:35;100659.97;;;7.29;96.37
16255;BME280;8235;52.198;9.904;2024-02-14T04:44:03;100660.75;;;7.31;97.27
16255;BME280;8235;52.198;9.904;2024-02-14T04:46:31;100654.75;;;7.27;97.41
16255;BME280;8235;52.198;9.904;2024-02-14T04:48:58;100658.13;;;7.31;97.85
16255;BME280;8235;52.198;9.904;2024-02-14T04:51:24;100654.03;;;7.24;98.30
16255;BME280;8235;52.198;9.904;2024-02-14T04:53:50;100662.78;;;7.26;99.02
16255;BME280;8235;52.198;9.904;2024-02-14T04:56:17;100655.59;;;7.28;99.47
16255;BME280;8235;52.198;9.904;2024-02-14T04:58:45;100655.59;;;7.28;99.45
16255;BME280;8235;52.198;9.904;2024-02-14T05:01:11;100649.38;;;7.29;100.00
16255;BME280;8235;52.198;9.904;2024-02-14T05:03:38;100652.88;;;7.29;100.00
16255;BME280;8235;52.198;9.904;2024-02-14T05:06:05;100653.81;;;7.28;100.00
16255;BME280;8235;52.198;9.904;2024-02-14T05:08:31;100654.69;;;7.29;100.00
16255;BME280;8235;52.198;9.904;2024-02-14T05:10:58;100652.81;;;7.31;100.00
16255;BME280;8235;52.198;9.904;2024-02-14T05:13:25;100657.47;;;7.26;100.00
16255;BME280;8235;52.198;9.904;2024-02-14T05:15:53;100662.91;;;7.23;100.00
16255;BME280;8235;52.198;9.904;2024-02-14T05:18:19;100661.06;;;7.25;100.00
16255;BME280;8235;52.198;9.904;2024-02-14T05:20:46;100645.22;;;7.23;100.00
16255;BME280;8235;52.198;9.904;2024-02-14T05:23:12;100654.97;;;7.23;100.00
16255;BME280;8235;52.198;9.904;2024-02-14T05:25:39;100647.88;;;7.23;100.00
16255;BME280;8235;52.198;9.904;2024-02-14T05:28:05;100650.59;;;7.22;100.00
16255;BME280;8235;52.198;9.904;2024-02-14T05:30:32;100643.72;;;7.18;100.00
16255;BME280;8235;52.198;9.904;2024-02-14T05:33:00;100646.56;;;7.15;100.00
16255;BME280;8235;52.198;9.904;2024-02-14T05:35:27;100648.97;;;7.19;100.00
16255;BME280;8235;52.198;9.904;2024-02-14T05:37:53;100651.47;;;7.22;100.00
16255;BME280;8235;52.198;9.904;2024-02-14T05:40:21;100650.38;;;7.26;100.00
16255;BME280;8235;52.198;9.904;2024-02-14T05:42:47;100651.47;;;7.22;100.00
16255;BME280;8235;52.198;9.904;2024-02-14T05:45:14;100661.19;;;7.22;100.00
16255;BME280;8235;52.198;9.904;2024-02-14T05:47:40;100654.69;;;7.29;100.00
16255;BME280;8235;52.198;9.904;2024-02-14T05:50:09;100660.75;;;7.31;100.00
16255;BME280;8235;52.198;9.904;2024-02-14T05:52:36;100662.47;;;7.32;100.00
16255;BME280;8235;52.198;9.904;2024-02-14T05:55:03;100658.91;;;7.33;100.00
16255;BME280;8235;52.198;9.904;2024-02-14T05:57:30;100655.31;;;7.34;100.00
16255;BME280;8235;52.198;9.904;2024-02-14T05:59:57;100645.72;;;7.31;100.00
16255;BME280;8235;52.198;9.904;2024-02-14T06:02:23;100659.66;;;7.35;100.00
16255;BME280;8235;52.198;9.904;2024-02-14T06:04:49;100648.97;;;7.37;100.00
16255;BME280;8235;52.198;9.904;2024-02-14T06:07:17;100640.88;;;7.40;100.00
16255;BME280;8235;52.198;9.904;2024-02-14T06:09:44;100655.13;;;7.37;100.00
16255;BME280;8235;52.198;9.904;2024-02-14T06:12:10;100652.47;;;7.37;100.00
16255;BME280;8235;52.198;9.904;2024-02-14T06:14:37;100649.63;;;7.42;100.00
16255;BME280;8235;52.198;9.904;2024-02-14T06:17:04;100649.69;;;7.40;100.00
16255;BME280;8235;52.198;9.904;2024-02-14T06:19:31;100650.47;;;7.42;100.00
16255;BME280;8235;52.198;9.904;2024-02-14T06:21:58;100646.75;;;7.46;100.00
16255;BME280;8235;52.198;9.904;2024-02-14T06:24:26;100658.28;;;7.45;100.00
16255;BME280;8235;52.198;9.904;2024-02-14T06:26:53;100659.06;;;7.47;100.00
16255;BME280;8235;52.198;9.904;2024-02-14T06:29:19;100652.03;;;7.46;100.00
16255;BME280;8235;52.198;9.904;2024-02-14T06:31:46;100651.97;;;7.48;100.00
16255;BME280;8235;52.198;9.904;2024-02-14T06:34:13;100655.47;;;7.48;100.00
16255;BME280;8235;52.198;9.904;2024-02-14T06:36:39;100655.53;;;7.47;100.00
16255;BME280;8235;52.198;9.904;2024-02-14T06:39:06;100651.97;;;7.48;100.00
16255;BME280;8235;52.198;9.904;2024-02-14T06:41:34;100659.91;;;7.48;100.00
16255;BME280;8235;52.198;9.904;2024-02-14T06:44:01;100656.25;;;7.50;100.00
16255;BME280;8235;52.198;9.904;2024-02-14T06:46:27;100653.69;;;7.49;100.00
16255;BME280;8235;52.198;9.904;2024-02-14T06:48:54;100668.00;;;7.45;100.00
16255;BME280;8235;52.198;9.904;2024-02-14T06:51:21;100659.19;;;7.44;100.00
16255;BME280;8235;52.198;9.904;2024-02-14T06:53:48;100658.28;;;7.45;100.00
16255;BME280;8235;52.198;9.904;2024-02-14T06:56:15;100667.16;;;7.44;100.00
16255;BME280;8235;52.198;9.904;2024-02-14T06:58:43;100664.28;;;7.49;100.00
16255;BME280;8235;52.198;9.904;2024-02-14T07:01:09;100659.75;;;7.51;100.00
16255;BME280;8235;52.198;9.904;2024-02-14T07:03:38;100662.16;;;7.55;100.00
16255;BME280;8235;52.198;9.904;2024-02-14T07:06:06;100665.66;;;7.56;100.00
16255;BME280;8235;52.198;9.904;2024-02-14T07:08:33;100666.53;;;7.56;100.00
16255;BME280;8235;52.198;9.904;2024-02-14T07:10:59;100665.59;;;7.57;100.00
16255;BME280;8235;52.198;9.904;2024-02-14T07:13:25;100670.09;;;7.55;100.00
16255;BME280;8235;52.198;9.904;2024-02-14T07:15:53;100666.38;;;7.59;100.00
16255;BME280;8235;52.198;9.904;2024-02-14T07:18:20;100655.78;;;7.59;100.00
16255;BME280;8235;52.198;9.904;2024-02-14T07:20:46;100661.00;;;7.61;100.00
16255;BME280;8235;52.198;9.904;2024-02-14T07:23:12;100664.50;;;7.61;100.00
16255;BME280;8235;52.198;9.904;2024-02-14T07:25:39;100664.66;;;7.58;100.00
16255;BME280;8235;52.198;9.904;2024-02-14T07:28:05;100663.81;;;7.58;100.00
16255;BME280;8235;52.198;9.904;2024-02-14T07:30:32;100675.91;;;7.63;100.00
16255;BME280;8235;52.198;9.904;2024-02-14T07:33:00;100672.47;;;7.61;100.00
16255;BME280;8235;52.198;9.904;2024-02-14T07:35:26;100680.41;;;7.61;100.00
16255;BME280;8235;52.198;9.904;2024-02-14T07:37:54;100683.13;;;7.60;100.00
16255;BME280;8235;52.198;9.904;2024-02-14T07:40:20;100695.31;;;7.64;100.00
16255;BME280;8235;52.198;9.904;2024-02-14T07:42:47;100694.44;;;7.63;100.00
16255;BME280;8235;52.198;9.904;2024-02-14T07:45:13;100688.13;;;7.66;100.00
16255;BME280;8235;52.198;9.904;2024-02-14T07:47:40;100684.41;;;7.70;100.00
16255;BME280;8235;52.198;9.904;2024-02-14T07:50:08;100695.00;;;7.70;100.00
16255;BME280;8235;52.198;9.904;2024-02-14T07:52:35;100693.09;;;7.72;100.00
16255;BME280;8235;52.198;9.904;2024-02-14T07:55:01;100703.63;;;7.74;100.00
16255;BME280;8235;52.198;9.904;2024-02-14T07:57:28;100699.91;;;7.78;100.00
16255;BME280;8235;52.198;9.904;2024-02-14T07:59:54;100702.56;;;7.78;100.00
16255;BME280;8235;52.198;9.904;2024-02-14T08:02:21;100703.41;;;7.78;100.00
16255;BME280;8235;52.198;9.904;2024-02-14T08:04:47;100697.25;;;7.78;100.00
16255;BME280;8235;52.198;9.904;2024-02-14T08:07:15;100695.59;;;7.75;100.00
16255;BME280;8235;52.198;9.904;2024-02-14T08:09:42;100697.25;;;7.78;100.00
16255;BME280;8235;52.198;9.904;2024-02-14T08:12:08;100700.84;;;7.77;100.00
16255;BME280;8235;52.198;9.904;2024-02-14T08:14:35;100699.28;;;7.73;100.00
16255;BME280;8235;52.198;9.904;2024-02-14T08:17:02;100697.25;;;7.78;100.00
16255;BME280;8235;52.198;9.904;2024-02-14T08:19:29;100706.84;;;7.80;100.00
16255;BME280;8235;52.198;9.904;2024-02-14T08:21:55;100716.38;;;7.84;100.00
16255;BME280;8235;52.198;9.904;2024-02-14T08:24:26;100711.00;;;7.86;100.00
16255;BME280;8235;52.198;9.904;2024-02-14T08:26:52;100714.56;;;7.85;100.00
16255;BME280;8235;52.198;9.904;2024-02-14T08:29:20;100711.00;;;7.86;100.00
16255;BME280;8235;52.198;9.904;2024-02-14T08:31:46;100714.56;;;7.85;100.00
16255;BME280;8235;52.198;9.904;2024-02-14T08:34:13;100716.09;;;7.89;100.00
16255;BME280;8235;52.198;9.904;2024-02-14T08:36:40;100722.13;;;7.92;100.00
16255;BME280;8235;52.198;9.904;2024-02-14T08:39:06;100717.53;;;7.96;100.00
16255;BME280;8235;52.198;9.904;2024-02-14T08:41:34;100723.75;;;7.95;100.00
16255;BME280;8235;52.198;9.904;2024-02-14T08:44:01;100718.47;;;7.95;100.00
16255;BME280;8235;52.198;9.904;2024-02-14T08:46:27;100712.22;;;7.96;100.00
16255;BME280;8235;52.198;9.904;2024-02-14T08:48:54;100724.47;;;7.98;100.00
16255;BME280;8235;52.198;9.904;2024-02-14T08:51:21;100732.34;;;8.00;100.00
16255;BME280;8235;52.198;9.904;2024-02-14T08:53:47;100731.25;;;8.04;100.00
16255;BME280;8235;52.198;9.904;2024-02-14T08:56:14;100733.91;;;8.04;100.00
16255;BME280;8235;52.198;9.904;2024-02-14T08:58:42;100728.75;;;8.01;100.00
16255;BME280;8235;52.198;9.904;2024-02-14T09:01:09;100729.47;;;8.05;100.00
16255;BME280;8235;52.198;9.904;2024-02-14T09:03:36;100733.66;;;8.09;100.00
16255;BME280;8235;52.198;9.904;2024-02-14T09:06:03;100732.47;;;8.14;100.00
16255;BME280;8235;52.198;9.904;2024-02-14T09:08:29;100734.34;;;8.12;100.00
16255;BME280;8235;52.198;9.904;2024-02-14T09:10:56;100734.19;;;8.15;100.00
16255;BME280;8235;52.198;9.904;2024-02-14T09:13:24;100727.97;;;8.16;100.00
16255;BME280;8235;52.198;9.904;2024-02-14T09:15:54;100739.50;;;8.15;100.00
16255;BME280;8235;52.198;9.904;2024-02-14T09:18:20;100734.06;;;8.18;100.00
16255;BME280;8235;52.198;9.904;2024-02-14T09:20:47;100742.63;;;8.23;100.00
16255;BME280;8235;52.198;9.904;2024-02-14T09:23:15;100734.75;;;8.22;100.00
16255;BME280;8235;52.198;9.904;2024-02-14T09:25:45;100738.00;;;8.27;100.00
16255;BME280;8235;52.198;9.904;2024-02-14T09:28:12;100736.00;;;8.32;100.00
16255;BME280;8235;52.198;9.904;2024-02-14T09:30:39;100752.78;;;8.32;100.00
16255;BME280;8235;52.198;9.904;2024-02-14T09:33:07;100749.03;;;8.37;100.00
16255;BME280;8235;52.198;9.904;2024-02-14T09:35:34;100747.84;;;8.42;100.00
16255;BME280;8235;52.198;9.904;2024-02-14T09:38:03;100757.44;;;8.45;100.00
16255;BME280;8235;52.198;9.904;2024-02-14T09:40:29;100751.19;;;8.46;100.00
16255;BME280;8235;52.198;9.904;2024-02-14T09:42:56;100759.00;;;8.49;100.00
16255;BME280;8235;52.198;9.904;2024-02-14T09:45:30;100750.09;;;8.50;100.00
16255;BME280;8235;52.198;9.904;2024-02-14T09:47:58;100743.69;;;8.54;100.00
16255;BME280;8235;52.198;9.904;2024-02-14T09:50:29;100746.69;;;8.63;100.00
16255;BME280;8235;52.198;9.904;2024-02-14T09:52:58;100754.50;;;8.66;100.00
16255;BME280;8235;52.198;9.904;2024-02-14T09:55:25;100758.81;;;8.69;100.00
16255;BME280;8235;52.198;9.904;2024-02-14T09:57:52;100757.84;;;8.70;100.00
16255;BME280;8235;52.198;9.904;2024-02-14T10:00:21;100764.72;;;8.74;100.00
16255;BME280;8235;52.198;9.904;2024-02-14T10:02:48;100773.28;;;8.79;100.00
16255;BME280;8235;52.198;9.904;2024-02-14T10:05:14;100766.09;;;8.81;100.00
16255;BME280;8235;52.198;9.904;2024-02-14T10:07:43;100770.81;;;8.76;100.00
16255;BME280;8235;52.198;9.904;2024-02-14T10:10:12;100776.13;;;8.76;100.00
16255;BME280;8235;52.198;9.904;2024-02-14T10:12:39;100787.34;;;8.81;100.00
16255;BME280;8235;52.198;9.904;2024-02-14T10:15:07;100786.25;;;8.85;100.00
16255;BME280;8235;52.198;9.904;2024-02-14T10:17:34;100787.78;;;8.89;100.00
16255;BME280;8235;52.198;9.904;2024-02-14T10:20:02;100793.72;;;8.94;100.00
16255;BME280;8235;52.198;9.904;2024-02-14T10:22:34;100803.22;;;8.98;100.00
16255;BME280;8235;52.198;9.904;2024-02-14T10:25:02;100799.53;;;9.01;100.00
16255;BME280;8235;52.198;9.904;2024-02-14T10:27:29;100804.78;;;9.02;100.00
16255;BME280;8235;52.198;9.904;2024-02-14T10:29:56;100808.13;;;9.06;100.00
16255;BME280;8235;52.198;9.904;2024-02-14T10:32:23;100814.31;;;9.07;100.00
16255;BME280;8235;52.198;9.904;2024-02-14T10:34:50;100816.88;;;9.08;100.00
16255;BME280;8235;52.198;9.904;2024-02-14T10:37:17;100812.94;;;9.15;100.00
16255;BME280;8235;52.198;9.904;2024-02-14T10:39:46;100817.22;;;9.18;100.00
16255;BME280;8235;52.198;9.904;2024-02-14T10:42:15;100816.13;;;9.22;100.00
16255;BME280;8235;52.198;9.904;2024-02-14T10:44:41;100816.91;;;9.24;100.00
16255;BME280;8235;52.198;9.904;2024-02-14T10:47:11;100826.41;;;9.28;100.00
16255;BME280;8235;52.198;9.904;2024-02-14T10:49:42;100826.41;;;9.28;100.00
16255;BME280;8235;52.198;9.904;2024-02-14T10:52:11;100814.66;;;9.32;100.00
16255;BME280;8235;52.198;9.904;2024-02-14T10:54:37;100818.09;;;9.34;100.00
16255;BME280;8235;52.198;9.904;2024-02-14T10:57:06;100832.59;;;9.44;100.00
16255;BME280;8235;52.198;9.904;2024-02-14T10:59:41;100828.84;;;9.48;100.00
16255;BME280;8235;52.198;9.904;2024-02-14T11:02:10;100826.75;;;9.53;100.00
16255;BME280;8235;52.198;9.904;2024-02-14T11:04:37;100821.88;;;9.61;100.00
16255;BME280;8235;52.198;9.904;2024-02-14T11:07:09;100825.47;;;9.60;100.00
16255;BME280;8235;52.198;9.904;2024-02-14T11:09:36;100829.59;;;9.66;100.00
16255;BME280;8235;52.198;9.904;2024-02-14T11:12:04;100823.06;;;9.71;100.00
16255;BME280;8235;52.198;9.904;2024-02-14T11:14:34;100824.78;;;9.72;100.00
16255;BME280;8235;52.198;9.904;2024-02-14T11:17:03;100828.38;;;9.71;100.00
16255;BME280;8235;52.198;9.904;2024-02-14T11:19:30;100830.25;;;9.69;100.00
16255;BME280;8235;52.198;9.904;2024-02-14T11:21:59;100834.72;;;9.69;100.00
16255;BME280;8235;52.198;9.904;2024-02-14T11:24:28;100842.78;;;9.67;100.00
16255;BME280;8235;52.198;9.904;2024-02-14T11:26:55;100845.97;;;9.74;100.00
16255;BME280;8235;52.198;9.904;2024-02-14T11:29:29;100831.47;;;9.80;100.00
16255;BME280;8235;52.198;9.904;2024-02-14T11:31:59;100840.91;;;9.85;100.00
16255;BME280;8235;52.198;9.904;2024-02-14T11:34:27;100842.50;;;9.88;100.00
16255;BME280;8235;52.198;9.904;2024-02-14T11:36:54;100847.81;;;9.88;100.00
16255;BME280;8235;52.198;9.904;2024-02-14T11:39:20;100837.97;;;9.90;100.00
16255;BME280;8235;52.198;9.904;2024-02-14T11:41:47;100847.75;;;9.89;100.00
16255;BME280;8235;52.198;9.904;2024-02-14T11:44:13;100832.72;;;9.88;100.00
16255;BME280;8235;52.198;9.904;2024-02-14T11:46:40;100844.06;;;9.92;100.00
16255;BME280;8235;52.198;9.904;2024-02-14T11:49:07;100842.16;;;9.94;100.00
16255;BME280;8235;52.198;9.904;2024-02-14T11:51:39;100844.75;;;9.95;100.00
16255;BME280;8235;52.198;9.904;2024-02-14T11:54:16;100855.38;;;9.95;100.00
16255;BME280;8235;52.198;9.904;2024-02-14T11:56:46;100849.19;;;9.95;100.00
16255;BME280;8235;52.198;9.904;2024-02-14T11:59:12;100849.03;;;9.98;100.00
16255;BME280;8235;52.198;9.904;2024-02-14T12:01:40;100856.25;;;9.96;100.00
16255;BME280;8235;52.198;9.904;2024-02-14T12:04:08;100846.28;;;9.99;100.00
16255;BME280;8235;52.198;9.904;2024-02-14T12:06:36;100843.53;;;10.01;100.00
16255;BME280;8235;52.198;9.904;2024-02-14T12:09:05;100841.44;;;10.06;100.00
16255;BME280;8235;52.198;9.904;2024-02-14T12:11:35;100846.59;;;10.09;100.00
16255;BME280;8235;52.198;9.904;2024-02-14T12:14:03;100857.25;;;10.09;100.00
16255;BME280;8235;52.198;9.904;2024-02-14T12:16:29;100856.22;;;10.12;100.00
16255;BME280;8235;52.198;9.904;2024-02-14T12:19:04;100861.63;;;10.10;100.00
16255;BME280;8235;52.198;9.904;2024-02-14T12:21:34;100861.44;;;10.13;100.00
16255;BME280;8235;52.198;9.904;2024-02-14T12:24:01;100855.09;;;10.16;100.00
16255;BME280;8235;52.198;9.904;2024-02-14T12:26:30;100858.47;;;10.19;100.00
16255;BME280;8235;52.198;9.904;2024-02-14T12:28:57;100863.84;;;10.18;100.00
16255;BME280;8235;52.198;9.904;2024-02-14T12:31:23;100855.00;;;10.17;100.00
16255;BME280;8235;52.198;9.904;2024-02-14T12:33:50;100858.19;;;10.24;100.00
16255;BME280;8235;52.198;9.904;2024-02-14T12:36:19;100856.28;;;10.26;100.00
16255;BME280;8235;52.198;9.904;2024-02-14T12:38:46;100856.19;;;10.27;100.00
16255;BME280;8235;52.198;9.904;2024-02-14T12:41:13;100855.06;;;10.31;100.00
16255;BME280;8235;52.198;9.904;2024-02-14T12:43:41;100855.06;;;10.31;100.00
16255;BME280;8235;52.198;9.904;2024-02-14T12:46:08;100857.56;;;10.34;100.00
16255;BME280;8235;52.198;9.904;2024-02-14T12:48:34;100863.56;;;10.38;100.00
16255;BME280;8235;52.198;9.904;2024-02-14T12:51:01;100863.66;;;10.36;100.00
16255;BME280;8235;52.198;9.904;2024-02-14T12:53:27;100863.56;;;10.38;100.00
16255;BME280;8235;52.198;9.904;2024-02-14T12:55:54;100867.94;;;10.39;100.00
16255;BME280;8235;52.198;9.904;2024-02-14T12:58:20;100867.94;;;10.39;100.00
16255;BME280;8235;52.198;9.904;2024-02-14T13:00:48;100866.78;;;10.43;100.00
16255;BME280;8235;52.198;9.904;2024-02-14T13:03:14;100864.81;;;10.47;100.00